Time,TemperatureF,DewpointF,PressureIn,WindDirection,WindDirectionDegrees,WindSpeedMPH,WindSpeedGustMPH,Humidity,HourlyPrecipIn,Conditions,Clouds,dailyrainin,SoftwareType,DateUTC
2013-02-04 00:04:00,35.1,27.3,29.76,SW,225,1.8,2.0,73,0.00,,,0.00,WUHU216HW,2013-02-04 06:04:00,
2013-02-04 00:09:00,34.9,27.1,29.76,SW,225,3.6,3.6,73,0.00,,,0.00,WUHU216HW,2013-02-04 06:09:00,
2013-02-04 00:14:00,34.9,27.1,29.75,SW,225,3.8,3.8,73,0.00,,,0.00,WUHU216HW,2013-02-04 06:14:00,
2013-02-04 00:19:00,35.1,27.3,29.75,SW,225,2.5,3.8,73,0.00,,,0.00,WUHU216HW,2013-02-04 06:19:00,
2013-02-04 00:24:00,35.1,27.3,29.75,SW,225,2.5,3.8,73,0.00,,,0.00,WUHU216HW,2013-02-04 06:24:00,
2013-02-04 00:48:00,36.4,28.5,29.75,WSW,248,2.5,2.5,73,0.00,,,0.00,WUHU216HW,2013-02-04 06:48:00,
2013-02-04 00:53:00,36.2,28.4,29.75,SW,225,1.8,2.5,73,0.00,,,0.00,WUHU216HW,2013-02-04 06:53:00,
2013-02-04 00:58:00,36.0,28.2,29.75,SW,225,1.8,2.5,73,0.00,,,0.00,WUHU216HW,2013-02-04 06:58:00,
2013-02-04 01:03:00,35.8,28.0,29.75,SW,225,1.3,1.8,73,0.00,,,0.00,WUHU216HW,2013-02-04 07:03:00,
2013-02-04 01:10:00,35.6,27.8,29.75,WSW,248,1.8,1.8,73,0.00,,,0.00,WUHU216HW,2013-02-04 07:10:00,
2013-02-04 01:15:00,35.5,27.6,29.75,WSW,248,1.6,1.8,73,0.00,,,0.00,WUHU216HW,2013-02-04 07:15:00,
2013-02-04 01:20:00,34.9,27.1,29.74,SW,225,1.3,1.8,73,0.00,,,0.00,WUHU216HW,2013-02-04 07:20:00,
2013-02-04 01:25:00,34.9,27.4,29.74,WSW,248,2.2,2.2,74,0.00,,,0.00,WUHU216HW,2013-02-04 07:25:00,
2013-02-04 01:30:00,35.3,27.5,29.74,WSW,248,3.4,3.4,73,0.00,,,0.00,WUHU216HW,2013-02-04 07:30:00,
2013-02-04 01:35:00,35.6,27.8,29.75,WSW,248,2.7,3.4,73,0.00,,,0.00,WUHU216HW,2013-02-04 07:35:00,
2013-02-04 01:40:00,36.0,28.2,29.75,WSW,248,1.8,3.4,73,0.00,,,0.00,WUHU216HW,2013-02-04 07:40:00,
2013-02-04 01:45:00,36.2,28.4,29.74,WSW,248,1.8,2.9,73,0.00,,,0.00,WUHU216HW,2013-02-04 07:45:00,
2013-02-04 01:50:00,36.4,28.5,29.75,West,270,3.4,3.4,73,0.00,,,0.00,WUHU216HW,2013-02-04 07:50:00,
2013-02-04 01:56:00,36.5,28.7,29.75,WSW,248,3.8,3.8,73,0.00,,,0.00,WUHU216HW,2013-02-04 07:56:00,
2013-02-04 02:01:00,36.7,28.9,29.75,West,270,3.4,3.8,73,0.00,,,0.00,WUHU216HW,2013-02-04 08:01:00,
2013-02-04 02:06:00,36.9,29.1,29.75,West,270,3.6,3.8,73,0.00,,,0.00,WUHU216HW,2013-02-04 08:06:00,
2013-02-04 02:11:00,37.3,29.1,29.75,West,270,3.4,3.6,72,0.00,,,0.00,WUHU216HW,2013-02-04 08:11:00,
2013-02-04 02:16:00,37.3,29.1,29.75,West,270,4.0,4.0,72,0.00,,,0.00,WUHU216HW,2013-02-04 08:16:00,
2013-02-04 02:21:00,37.4,29.3,29.75,West,270,4.0,4.0,72,0.00,,,0.00,WUHU216HW,2013-02-04 08:21:00,
2013-02-04 02:26:00,37.4,29.3,29.75,West,270,4.7,4.7,72,0.00,,,0.00,WUHU216HW,2013-02-04 08:26:00,
2013-02-04 02:31:00,37.8,29.3,29.75,West,270,4.7,4.7,71,0.00,,,0.00,WUHU216HW,2013-02-04 08:31:00,
2013-02-04 02:36:00,37.8,29.3,29.75,WNW,293,4.5,4.7,71,0.00,,,0.00,WUHU216HW,2013-02-04 08:36:00,
2013-02-04 02:41:00,37.8,29.3,29.75,WNW,293,2.7,4.7,71,0.00,,,0.00,WUHU216HW,2013-02-04 08:41:00,
2013-02-04 02:47:00,38.0,29.4,29.75,WNW,293,1.8,2.7,71,0.00,,,0.00,WUHU216HW,2013-02-04 08:47:00,
2013-02-04 02:52:00,37.8,29.3,29.76,WNW,293,2.2,2.7,71,0.00,,,0.00,WUHU216HW,2013-02-04 08:52:00,
2013-02-04 02:57:00,37.8,29.3,29.76,WNW,293,3.1,3.1,71,0.00,,,0.00,WUHU216HW,2013-02-04 08:57:00,
2013-02-04 03:02:00,37.6,29.1,29.76,WNW,293,2.5,3.1,71,0.00,,,0.00,WUHU216HW,2013-02-04 09:02:00,
2013-02-04 03:07:00,37.3,28.8,29.77,WNW,293,2.0,3.1,71,0.00,,,0.00,WUHU216HW,2013-02-04 09:07:00,
2013-02-04 03:12:00,37.3,28.8,29.77,WNW,293,2.2,2.5,71,0.00,,,0.00,WUHU216HW,2013-02-04 09:12:00,
2013-02-04 03:17:00,37.4,29.0,29.77,WNW,293,2.5,2.5,71,0.00,,,0.00,WUHU216HW,2013-02-04 09:17:00,
2013-02-04 03:22:00,37.3,28.8,29.77,NW,315,1.3,2.5,71,0.00,,,0.00,WUHU216HW,2013-02-04 09:22:00,
2013-02-04 03:27:00,37.3,28.8,29.77,WNW,293,2.0,2.5,71,0.00,,,0.00,WUHU216HW,2013-02-04 09:27:00,
2013-02-04 03:32:00,37.4,29.0,29.77,WNW,293,2.7,2.7,71,0.00,,,0.00,WUHU216HW,2013-02-04 09:32:00,
2013-02-04 03:37:00,37.3,28.8,29.77,WNW,293,1.8,2.7,71,0.00,,,0.00,WUHU216HW,2013-02-04 09:37:00,
2013-02-04 03:42:00,37.1,28.6,29.78,NW,315,2.5,3.1,71,0.00,,,0.00,WUHU216HW,2013-02-04 09:42:00,
2013-02-04 03:47:00,36.9,28.7,29.78,NNW,338,2.0,3.1,72,0.00,,,0.00,WUHU216HW,2013-02-04 09:47:00,
2013-02-04 03:53:00,36.7,28.5,29.79,NNW,338,1.1,2.7,72,0.00,,,0.00,WUHU216HW,2013-02-04 09:53:00,
2013-02-04 03:58:00,36.4,28.5,29.79,NW,315,1.6,2.7,73,0.00,,,0.00,WUHU216HW,2013-02-04 09:58:00,
2013-02-04 04:03:00,36.2,28.4,29.79,WNW,293,1.3,1.8,73,0.00,,,0.00,WUHU216HW,2013-02-04 10:03:00,
2013-02-04 04:08:00,35.8,28.0,29.79,NW,315,1.6,1.8,73,0.00,,,0.00,WUHU216HW,2013-02-04 10:08:00,
2013-02-04 04:13:00,35.1,27.3,29.80,NW,315,1.3,1.8,73,0.00,,,0.00,WUHU216HW,2013-02-04 10:13:00,
2013-02-04 04:18:00,34.7,26.9,29.80,WNW,293,4.0,4.0,73,0.00,,,0.00,WUHU216HW,2013-02-04 10:18:00,
2013-02-04 04:23:00,34.2,26.6,29.80,North,0,2.5,4.0,74,0.00,,,0.00,WUHU216HW,2013-02-04 10:23:00,
2013-02-04 04:28:00,33.7,26.2,29.81,NNE,23,3.6,4.0,74,0.00,,,0.00,WUHU216HW,2013-02-04 10:28:00,
2013-02-04 04:33:00,33.3,26.2,29.81,NNW,338,1.1,3.6,75,0.00,,,0.00,WUHU216HW,2013-02-04 10:33:00,
2013-02-04 04:38:00,32.9,25.8,29.82,NW,315,2.0,3.6,75,0.00,,,0.00,WUHU216HW,2013-02-04 10:38:00,
2013-02-04 04:44:00,32.6,25.5,29.82,NW,315,2.2,2.2,75,0.00,,,0.00,WUHU216HW,2013-02-04 10:44:00,
2013-02-04 04:49:00,31.9,25.2,29.82,NNE,23,3.4,3.4,76,0.00,,,0.00,WUHU216HW,2013-02-04 10:49:00,
2013-02-04 04:54:00,31.5,24.9,29.83,North,0,2.7,3.4,76,0.00,,,0.00,WUHU216HW,2013-02-04 10:54:00,
2013-02-04 04:59:00,31.1,24.5,29.83,NW,315,2.0,3.4,76,0.00,,,0.00,WUHU216HW,2013-02-04 10:59:00,
2013-02-04 05:04:00,30.8,24.1,29.84,ENE,68,2.0,3.1,76,0.00,,,0.00,WUHU216HW,2013-02-04 11:04:00,
2013-02-04 05:09:00,30.4,23.8,29.84,North,0,1.8,2.0,76,0.00,,,0.00,WUHU216HW,2013-02-04 11:09:00,
2013-02-04 05:14:00,30.1,23.7,29.85,NNW,338,3.1,3.1,77,0.00,,,0.00,WUHU216HW,2013-02-04 11:14:00,
2013-02-04 05:19:00,29.7,23.1,29.85,North,0,1.8,3.1,76,0.00,,,0.00,WUHU216HW,2013-02-04 11:19:00,
2013-02-04 05:24:00,29.5,22.9,29.85,North,0,1.3,7.4,76,0.00,,,0.00,WUHU216HW,2013-02-04 11:24:00,
2013-02-04 05:29:00,29.3,22.7,29.85,South,180,2.5,7.4,76,0.00,,,0.00,WUHU216HW,2013-02-04 11:29:00,
2013-02-04 05:34:00,29.2,22.5,29.86,WNW,293,1.3,3.4,76,0.00,,,0.00,WUHU216HW,2013-02-04 11:34:00,
2013-02-04 05:39:00,29.2,22.5,29.86,West,270,3.1,3.1,76,0.00,,,0.00,WUHU216HW,2013-02-04 11:39:00,
2013-02-04 05:44:00,28.8,22.1,29.86,ESE,113,3.4,3.4,76,0.00,,,0.00,WUHU216HW,2013-02-04 11:44:00,
2013-02-04 05:49:00,28.4,21.8,29.86,NNW,338,6.0,6.0,76,0.00,,,0.00,WUHU216HW,2013-02-04 11:49:00,
2013-02-04 05:54:00,28.1,21.4,29.87,North,0,4.0,6.0,76,0.00,,,0.00,WUHU216HW,2013-02-04 11:54:00,
2013-02-04 05:59:00,27.9,21.6,29.87,WNW,293,1.3,6.0,77,0.00,,,0.00,WUHU216HW,2013-02-04 11:59:00,
2013-02-04 06:04:00,27.9,21.6,29.87,NNW,338,2.7,2.7,77,0.00,,,0.00,WUHU216HW,2013-02-04 12:04:00,
2013-02-04 06:09:00,27.7,21.4,29.88,NE,45,4.7,4.7,77,0.00,,,0.00,WUHU216HW,2013-02-04 12:09:00,
2013-02-04 06:15:00,27.7,21.4,29.88,North,0,3.4,4.7,77,0.00,,,0.00,WUHU216HW,2013-02-04 12:15:00,
2013-02-04 06:20:00,27.5,21.3,29.89,WSW,248,2.9,4.7,77,0.00,,,0.00,WUHU216HW,2013-02-04 12:20:00,
2013-02-04 06:25:00,27.2,20.9,29.90,ESE,113,0.9,3.6,77,0.00,,,0.00,WUHU216HW,2013-02-04 12:25:00,
2013-02-04 06:30:00,27.0,20.7,29.90,NW,315,3.1,3.1,77,0.00,,,0.00,WUHU216HW,2013-02-04 12:30:00,
2013-02-04 06:35:00,26.6,20.4,29.90,NW,315,2.5,3.1,77,0.00,,,0.00,WUHU216HW,2013-02-04 12:35:00,
2013-02-04 06:40:00,26.5,20.2,29.90,NNW,338,2.2,3.1,77,0.00,,,0.00,WUHU216HW,2013-02-04 12:40:00,
2013-02-04 06:45:00,25.7,19.5,29.90,NW,315,2.7,3.4,77,0.00,,,0.00,WUHU216HW,2013-02-04 12:45:00,
2013-02-04 06:50:00,25.6,19.6,29.91,NNE,23,2.5,4.0,78,0.00,,,0.00,WUHU216HW,2013-02-04 12:50:00,
2013-02-04 06:55:00,25.4,19.4,29.91,West,270,4.0,4.0,78,0.00,,,0.00,WUHU216HW,2013-02-04 12:55:00,
2013-02-04 07:00:00,24.8,19.0,29.91,WNW,293,4.0,4.0,78,0.00,,,0.00,WUHU216HW,2013-02-04 13:00:00,
2013-02-04 07:05:00,24.7,18.8,29.92,NNE,23,1.6,4.0,78,0.00,,,0.00,WUHU216HW,2013-02-04 13:05:00,
2013-02-04 07:10:00,24.5,18.6,29.92,NW,315,3.4,4.0,78,0.00,,,0.00,WUHU216HW,2013-02-04 13:10:00,
2013-02-04 07:15:00,24.3,18.5,29.93,SW,225,1.6,3.4,78,0.00,,,0.00,WUHU216HW,2013-02-04 13:15:00,
2013-02-04 07:20:00,24.3,18.5,29.92,NNW,338,1.8,3.4,78,0.00,,,0.00,WUHU216HW,2013-02-04 13:20:00,
2013-02-04 07:25:00,24.1,18.3,29.93,North,0,2.5,2.9,78,0.00,,,0.00,WUHU216HW,2013-02-04 13:25:00,
2013-02-04 07:30:00,24.1,18.3,29.93,North,0,1.8,2.9,78,0.00,,,0.00,WUHU216HW,2013-02-04 13:30:00,
2013-02-04 07:35:00,23.6,17.5,29.93,North,0,6.9,6.9,77,0.00,,,0.00,WUHU216HW,2013-02-04 13:35:00,
2013-02-04 07:41:00,23.4,17.3,29.93,NNE,23,4.9,6.9,77,0.00,,,0.00,WUHU216HW,2013-02-04 13:41:00,
2013-02-04 07:46:00,23.4,17.6,29.93,North,0,1.1,6.3,78,0.00,,,0.00,WUHU216HW,2013-02-04 13:46:00,
2013-02-04 07:51:00,23.4,17.6,29.93,North,0,1.1,4.9,78,0.00,,,0.00,WUHU216HW,2013-02-04 13:51:00,
2013-02-04 07:56:00,23.4,17.6,29.94,North,0,1.1,1.1,78,0.00,,,0.00,WUHU216HW,2013-02-04 13:56:00,
2013-02-04 08:01:00,23.4,17.6,29.94,NE,45,6.0,6.0,78,0.00,,,0.00,WUHU216HW,2013-02-04 14:01:00,
2013-02-04 08:06:00,23.4,17.6,29.94,North,0,7.4,7.4,78,0.00,,,0.00,WUHU216HW,2013-02-04 14:06:00,
2013-02-04 08:11:00,23.6,17.7,29.95,North,0,4.7,7.4,78,0.00,,,0.00,WUHU216HW,2013-02-04 14:11:00,
2013-02-04 08:16:00,23.6,17.7,29.94,North,0,3.4,7.4,78,0.00,,,0.00,WUHU216HW,2013-02-04 14:16:00,
2013-02-04 08:21:00,23.8,17.9,29.95,North,0,6.3,6.3,78,0.00,,,0.00,WUHU216HW,2013-02-04 14:21:00,
2013-02-04 08:26:00,23.6,17.7,29.95,NNE,23,3.8,6.3,78,0.00,,,0.00,WUHU216HW,2013-02-04 14:26:00,
2013-02-04 08:31:00,23.6,17.7,29.95,North,0,4.0,4.0,78,0.00,,,0.00,WUHU216HW,2013-02-04 14:31:00,
2013-02-04 08:36:00,23.6,17.7,29.95,North,0,4.0,4.7,78,0.00,,,0.00,WUHU216HW,2013-02-04 14:36:00,
2013-02-04 08:41:00,23.8,17.9,29.95,North,0,3.4,4.7,78,0.00,,,0.00,WUHU216HW,2013-02-04 14:41:00,
2013-02-04 08:46:00,23.8,17.9,29.95,North,0,3.4,4.0,78,0.00,,,0.00,WUHU216HW,2013-02-04 14:46:00,
2013-02-04 08:51:00,23.8,17.9,29.95,North,0,3.4,3.4,78,0.00,,,0.00,WUHU216HW,2013-02-04 14:51:00,
2013-02-04 08:57:00,23.8,17.9,29.95,North,0,3.4,3.4,78,0.00,,,0.00,WUHU216HW,2013-02-04 14:57:00,
2013-02-04 09:02:00,23.6,17.7,29.96,ESE,113,2.7,3.6,78,0.00,,,0.00,WUHU216HW,2013-02-04 15:02:00,
2013-02-04 09:07:00,23.8,17.9,29.96,NNW,338,2.5,3.6,78,0.00,,,0.00,WUHU216HW,2013-02-04 15:07:00,
2013-02-04 09:12:00,23.9,18.4,29.96,NE,45,4.5,4.5,79,0.00,,,0.00,WUHU216HW,2013-02-04 15:12:00,
2013-02-04 09:17:00,23.9,18.1,29.96,North,0,4.0,4.5,78,0.00,,,0.00,WUHU216HW,2013-02-04 15:17:00,
2013-02-04 09:22:00,24.1,18.5,29.96,NW,315,4.0,4.0,79,0.00,,,0.00,WUHU216HW,2013-02-04 15:22:00,
2013-02-04 09:27:00,24.1,18.3,29.96,North,0,1.8,4.0,78,0.00,,,0.00,WUHU216HW,2013-02-04 15:27:00,
2013-02-04 09:32:00,24.3,18.5,29.96,North,0,4.7,4.7,78,0.00,,,0.00,WUHU216HW,2013-02-04 15:32:00,
2013-02-04 09:37:00,24.3,18.5,29.97,North,0,2.5,4.7,78,0.00,,,0.00,WUHU216HW,2013-02-04 15:37:00,
2013-02-04 09:42:00,24.5,18.6,29.97,North,0,4.0,4.0,78,0.00,,,0.00,WUHU216HW,2013-02-04 15:42:00,
2013-02-04 09:47:00,24.5,18.6,29.97,North,0,4.0,4.0,78,0.00,,,0.00,WUHU216HW,2013-02-04 15:47:00,
2013-02-04 09:52:00,24.5,18.6,29.97,North,0,1.3,4.0,78,0.00,,,0.00,WUHU216HW,2013-02-04 15:52:00,
2013-02-04 09:57:00,24.5,18.6,29.98,North,0,4.7,4.7,78,0.00,,,0.00,WUHU216HW,2013-02-04 15:57:00,
2013-02-04 10:02:00,24.5,18.6,29.98,North,0,1.3,4.7,78,0.00,,,0.00,WUHU216HW,2013-02-04 16:02:00,
2013-02-04 10:08:00,24.8,19.0,29.98,North,0,2.9,4.7,78,0.00,,,0.00,WUHU216HW,2013-02-04 16:08:00,
2013-02-04 10:13:00,24.7,18.8,29.98,North,0,3.4,4.5,78,0.00,,,0.00,WUHU216HW,2013-02-04 16:13:00,
2013-02-04 10:18:00,24.7,18.8,29.98,North,0,2.9,4.5,78,0.00,,,0.00,WUHU216HW,2013-02-04 16:18:00,
2013-02-04 10:23:00,24.7,18.8,29.98,NNE,23,4.3,4.3,78,0.00,,,0.00,WUHU216HW,2013-02-04 16:23:00,
2013-02-04 10:28:00,24.8,19.0,29.99,NNE,23,2.7,4.3,78,0.00,,,0.00,WUHU216HW,2013-02-04 16:28:00,
2013-02-04 10:34:00,24.8,19.0,29.99,NNE,23,2.5,4.3,78,0.00,,,0.00,WUHU216HW,2013-02-04 16:34:00,
2013-02-04 10:39:00,24.8,19.0,29.99,North,0,3.8,3.8,78,0.00,,,0.00,WUHU216HW,2013-02-04 16:39:00,
2013-02-04 10:44:00,24.8,19.0,29.99,NNE,23,1.1,4.0,78,0.00,,,0.00,WUHU216HW,2013-02-04 16:44:00,
2013-02-04 10:49:00,24.8,19.0,29.99,North,0,1.1,4.0,78,0.00,,,0.00,WUHU216HW,2013-02-04 16:49:00,
2013-02-04 10:54:00,25.0,19.2,29.99,North,0,1.6,2.7,78,0.00,,,0.00,WUHU216HW,2013-02-04 16:54:00,
2013-02-04 11:00:00,25.2,19.3,29.99,NNE,23,0.7,2.7,78,0.00,,,0.00,WUHU216HW,2013-02-04 17:00:00,
2013-02-04 11:05:00,25.2,19.3,29.99,North,0,3.8,3.8,78,0.00,,,0.00,WUHU216HW,2013-02-04 17:05:00,
2013-02-04 11:10:00,25.0,19.2,29.99,North,0,2.5,3.8,78,0.00,,,0.00,WUHU216HW,2013-02-04 17:10:00,
2013-02-04 11:15:00,25.0,18.8,29.99,North,0,2.0,3.8,77,0.00,,,0.00,WUHU216HW,2013-02-04 17:15:00,
2013-02-04 11:20:00,25.2,19.0,29.98,North,0,2.0,3.4,77,0.00,,,0.00,WUHU216HW,2013-02-04 17:20:00,
2013-02-04 11:25:00,25.4,19.2,29.99,NNE,23,2.5,2.5,77,0.00,,,0.00,WUHU216HW,2013-02-04 17:25:00,
2013-02-04 11:30:00,25.6,19.4,29.99,North,0,2.0,2.5,77,0.00,,,0.00,WUHU216HW,2013-02-04 17:30:00,
2013-02-04 11:35:00,25.4,19.2,29.99,ESE,113,2.2,3.4,77,0.00,,,0.00,WUHU216HW,2013-02-04 17:35:00,
2013-02-04 11:40:00,25.6,19.4,29.99,North,0,2.7,3.4,77,0.00,,,0.00,WUHU216HW,2013-02-04 17:40:00,
2013-02-04 11:46:00,25.6,19.4,29.99,North,0,4.0,4.7,77,0.00,,,0.00,WUHU216HW,2013-02-04 17:46:00,
2013-02-04 11:51:00,25.4,19.2,29.98,NNE,23,1.8,4.7,77,0.00,,,0.00,WUHU216HW,2013-02-04 17:51:00,
2013-02-04 11:56:00,25.6,19.4,29.98,NW,315,1.1,3.1,77,0.00,,,0.00,WUHU216HW,2013-02-04 17:56:00,
2013-02-04 12:01:00,25.6,19.4,29.98,North,0,2.5,2.5,77,0.00,,,0.00,WUHU216HW,2013-02-04 18:01:00,
2013-02-04 12:06:00,25.6,19.4,29.98,North,0,1.6,2.5,77,0.00,,,0.00,WUHU216HW,2013-02-04 18:06:00,
2013-02-04 12:11:00,25.7,19.5,29.98,NNE,23,1.3,2.5,77,0.00,,,0.00,WUHU216HW,2013-02-04 18:11:00,
2013-02-04 12:16:00,25.9,19.6,29.98,North,0,1.1,2.5,77,0.00,,,0.00,WUHU216HW,2013-02-04 18:16:00,
2013-02-04 12:21:00,25.9,19.6,29.98,North,0,1.3,2.2,77,0.00,,,0.00,WUHU216HW,2013-02-04 18:21:00,
2013-02-04 12:26:00,26.1,19.8,29.98,North,0,1.8,1.8,77,0.00,,,0.00,WUHU216HW,2013-02-04 18:26:00,
2013-02-04 12:31:00,26.3,20.0,29.98,NNW,338,0.7,1.8,77,0.00,,,0.00,WUHU216HW,2013-02-04 18:31:00,
2013-02-04 12:36:00,26.1,19.8,29.98,North,0,1.1,1.8,77,0.00,,,0.00,WUHU216HW,2013-02-04 18:36:00,
2013-02-04 12:41:00,26.1,19.8,29.98,North,0,1.8,1.8,77,0.00,,,0.00,WUHU216HW,2013-02-04 18:41:00,
2013-02-04 12:46:00,26.1,19.8,29.98,NNW,338,0.4,1.8,77,0.00,,,0.00,WUHU216HW,2013-02-04 18:46:00,
2013-02-04 12:51:00,26.1,19.8,29.97,North,0,0.9,1.8,77,0.00,,,0.00,WUHU216HW,2013-02-04 18:51:00,
2013-02-04 12:57:00,26.3,20.0,29.97,NNE,23,3.8,3.8,77,0.00,,,0.00,WUHU216HW,2013-02-04 18:57:00,
2013-02-04 13:02:00,26.3,20.0,29.97,NE,45,1.8,3.8,77,0.00,,,0.00,WUHU216HW,2013-02-04 19:02:00,
2013-02-04 13:07:00,26.3,20.0,29.97,NNE,23,2.0,2.0,77,0.00,,,0.00,WUHU216HW,2013-02-04 19:07:00,
2013-02-04 13:12:00,26.5,19.9,29.97,NNE,23,1.3,2.0,76,0.00,,,0.00,WUHU216HW,2013-02-04 19:12:00,
2013-02-04 13:17:00,26.5,19.9,29.97,NW,315,1.1,2.0,76,0.00,,,0.00,WUHU216HW,2013-02-04 19:17:00,
2013-02-04 13:22:00,26.5,19.9,29.97,NNE,23,1.3,1.3,76,0.00,,,0.00,WUHU216HW,2013-02-04 19:22:00,
2013-02-04 13:27:00,26.6,20.0,29.97,NNE,23,0.2,1.3,76,0.00,,,0.00,WUHU216HW,2013-02-04 19:27:00,
2013-02-04 13:33:00,26.6,20.0,29.98,North,0,2.7,2.7,76,0.00,,,0.00,WUHU216HW,2013-02-04 19:33:00,
2013-02-04 13:38:00,26.5,19.9,29.98,East,90,1.3,2.7,76,0.00,,,0.00,WUHU216HW,2013-02-04 19:38:00,
2013-02-04 13:43:00,26.6,20.0,29.97,NNE,23,0.0,1.3,76,0.00,,,0.00,WUHU216HW,2013-02-04 19:43:00,
2013-02-04 13:48:00,26.5,19.9,29.98,WNW,293,0.7,1.3,76,0.00,,,0.00,WUHU216HW,2013-02-04 19:48:00,
2013-02-04 13:53:00,26.3,19.7,29.98,North,0,0.2,1.1,76,0.00,,,0.00,WUHU216HW,2013-02-04 19:53:00,
2013-02-04 13:58:00,26.5,19.9,29.97,North,0,0.0,0.7,76,0.00,,,0.00,WUHU216HW,2013-02-04 19:58:00,
2013-02-04 14:03:00,26.6,20.0,29.97,West,270,0.0,0.4,76,0.00,,,0.00,WUHU216HW,2013-02-04 20:03:00,
2013-02-04 14:08:00,26.6,20.0,29.97,NW,315,1.8,1.8,76,0.00,,,0.00,WUHU216HW,2013-02-04 20:08:00,
2013-02-04 14:14:00,26.6,20.0,29.97,North,0,0.7,1.8,76,0.00,,,0.00,WUHU216HW,2013-02-04 20:14:00,
2013-02-04 14:19:00,26.6,20.0,29.97,North,0,1.8,2.2,76,0.00,,,0.00,WUHU216HW,2013-02-04 20:19:00,
2013-02-04 14:24:00,26.5,19.9,29.96,North,0,0.4,2.2,76,0.00,,,0.00,WUHU216HW,2013-02-04 20:24:00,
2013-02-04 14:29:00,26.5,19.9,29.96,NNE,23,0.0,2.0,76,0.00,,,0.00,WUHU216HW,2013-02-04 20:29:00,
2013-02-04 14:35:00,26.6,20.0,29.96,North,0,1.1,1.1,76,0.00,,,0.00,WUHU216HW,2013-02-04 20:35:00,
2013-02-04 14:40:00,26.6,20.0,29.95,NNW,338,2.2,2.2,76,0.00,,,0.00,WUHU216HW,2013-02-04 20:40:00,
2013-02-04 14:45:00,26.6,20.0,29.95,North,0,1.3,2.2,76,0.00,,,0.00,WUHU216HW,2013-02-04 20:45:00,
2013-02-04 14:50:00,26.5,19.9,29.96,NNE,23,1.1,2.2,76,0.00,,,0.00,WUHU216HW,2013-02-04 20:50:00,
2013-02-04 14:55:00,26.6,20.0,29.96,NW,315,0.0,2.2,76,0.00,,,0.00,WUHU216HW,2013-02-04 20:55:00,
2013-02-04 15:00:00,26.6,20.0,29.96,SW,225,0.0,2.2,76,0.00,,,0.00,WUHU216HW,2013-02-04 21:00:00,
2013-02-04 15:05:00,27.0,20.3,29.95,NNE,23,0.4,0.4,76,0.00,,,0.00,WUHU216HW,2013-02-04 21:05:00,
2013-02-04 15:10:00,27.0,20.3,29.96,North,0,2.7,2.7,76,0.00,,,0.00,WUHU216HW,2013-02-04 21:10:00,
2013-02-04 15:15:00,27.0,20.3,29.96,NNE,23,0.2,2.7,76,0.00,,,0.00,WUHU216HW,2013-02-04 21:15:00,
2013-02-04 15:20:00,27.0,20.1,29.96,NW,315,0.7,2.7,75,0.00,,,0.00,WUHU216HW,2013-02-04 21:20:00,
2013-02-04 15:25:00,27.0,20.3,29.96,SSW,203,0.9,1.6,76,0.00,,,0.00,WUHU216HW,2013-02-04 21:25:00,
2013-02-04 15:30:00,27.0,20.3,29.95,SSW,203,1.1,1.6,76,0.00,,,0.00,WUHU216HW,2013-02-04 21:30:00,
2013-02-04 15:35:00,27.4,20.7,29.95,SSW,203,0.4,1.1,76,0.00,,,0.00,WUHU216HW,2013-02-04 21:35:00,
2013-02-04 15:41:00,27.2,20.3,29.95,WSW,248,0.0,1.1,75,0.00,,,0.00,WUHU216HW,2013-02-04 21:41:00,
2013-02-04 15:46:00,27.0,20.1,29.95,North,0,0.2,0.7,75,0.00,,,0.00,WUHU216HW,2013-02-04 21:46:00,
2013-02-04 15:51:00,27.4,20.4,29.95,North,0,0.4,0.4,75,0.00,,,0.00,WUHU216HW,2013-02-04 21:51:00,
2013-02-04 15:56:00,27.0,20.1,29.95,SSE,158,0.0,0.4,75,0.00,,,0.00,WUHU216HW,2013-02-04 21:56:00,
2013-02-04 16:01:00,26.8,19.9,29.94,NE,45,0.4,0.4,75,0.00,,,0.00,WUHU216HW,2013-02-04 22:01:00,
2013-02-04 16:06:00,26.6,19.7,29.94,ENE,68,0.4,0.4,75,0.00,,,0.00,WUHU216HW,2013-02-04 22:06:00,
2013-02-04 16:11:00,26.3,19.4,29.93,East,90,1.3,1.8,75,0.00,,,0.00,WUHU216HW,2013-02-04 22:11:00,
2013-02-04 16:16:00,26.1,19.5,29.93,ESE,113,1.1,2.0,76,0.00,,,0.00,WUHU216HW,2013-02-04 22:16:00,
2013-02-04 16:21:00,26.1,19.5,29.93,SSE,158,1.8,2.0,76,0.00,,,0.00,WUHU216HW,2013-02-04 22:21:00,
2013-02-04 16:26:00,26.5,19.9,29.93,SSW,203,0.0,1.8,76,0.00,,,0.00,WUHU216HW,2013-02-04 22:26:00,
2013-02-04 16:31:00,26.8,20.2,29.93,SSW,203,0.2,1.3,76,0.00,,,0.00,WUHU216HW,2013-02-04 22:31:00,
2013-02-04 16:36:00,27.0,20.3,29.93,SSW,203,0.0,0.4,76,0.00,,,0.00,WUHU216HW,2013-02-04 22:36:00,
2013-02-04 16:41:00,27.0,20.3,29.93,SSW,203,0.0,0.2,76,0.00,,,0.00,WUHU216HW,2013-02-04 22:41:00,
2013-02-04 16:46:00,27.0,20.3,29.92,ENE,68,0.4,0.4,76,0.00,,,0.00,WUHU216HW,2013-02-04 22:46:00,
2013-02-04 16:51:00,26.6,20.0,29.92,East,90,1.6,2.0,76,0.00,,,0.00,WUHU216HW,2013-02-04 22:51:00,
2013-02-04 16:56:00,26.3,19.7,29.92,ESE,113,1.8,2.0,76,0.00,,,0.00,WUHU216HW,2013-02-04 22:56:00,
2013-02-04 17:01:00,26.3,19.7,29.92,ESE,113,0.0,1.8,76,0.00,,,0.00,WUHU216HW,2013-02-04 23:01:00,
2013-02-04 17:06:00,26.3,19.7,29.92,NE,45,1.3,1.8,76,0.00,,,0.00,WUHU216HW,2013-02-04 23:06:00,
2013-02-04 17:11:00,26.1,19.5,29.91,East,90,0.4,3.4,76,0.00,,,0.00,WUHU216HW,2013-02-04 23:11:00,
2013-02-04 17:16:00,25.9,19.4,29.91,East,90,0.4,3.4,76,0.00,,,0.00,WUHU216HW,2013-02-04 23:16:00,
2013-02-04 17:22:00,25.7,19.2,29.91,NE,45,0.0,0.4,76,0.00,,,0.00,WUHU216HW,2013-02-04 23:22:00,
2013-02-04 17:27:00,25.7,19.2,29.91,East,90,0.9,0.9,76,0.00,,,0.00,WUHU216HW,2013-02-04 23:27:00,
2013-02-04 17:32:00,25.6,19.4,29.91,East,90,1.8,1.8,77,0.00,,,0.00,WUHU216HW,2013-02-04 23:32:00,
2013-02-04 17:37:00,25.6,19.4,29.91,ESE,113,0.0,1.8,77,0.00,,,0.00,WUHU216HW,2013-02-04 23:37:00,
2013-02-04 17:42:00,25.6,19.4,29.91,NE,45,0.0,1.8,77,0.00,,,0.00,WUHU216HW,2013-02-04 23:42:00,
2013-02-04 17:47:00,25.6,19.4,29.91,NE,45,0.0,1.8,77,0.00,,,0.00,WUHU216HW,2013-02-04 23:47:00,
2013-02-04 17:52:00,25.6,19.4,29.91,ENE,68,0.2,1.8,77,0.00,,,0.00,WUHU216HW,2013-02-04 23:52:00,
2013-02-04 17:57:00,25.6,19.4,29.92,SSW,203,0.0,0.2,77,0.00,,,0.00,WUHU216HW,2013-02-04 23:57:00,
2013-02-04 18:02:00,25.6,19.4,29.92,South,180,0.2,0.9,77,0.00,,,0.00,WUHU216HW,2013-02-05 00:02:00,
2013-02-04 18:07:00,25.6,19.4,29.92,SSE,158,0.2,0.9,77,0.00,,,0.00,WUHU216HW,2013-02-05 00:07:00,
2013-02-04 18:12:00,25.6,19.4,29.91,ESE,113,0.0,1.3,77,0.00,,,0.00,WUHU216HW,2013-02-05 00:12:00,
2013-02-04 18:17:00,25.6,19.4,29.91,SSW,203,0.0,1.8,77,0.00,,,0.00,WUHU216HW,2013-02-05 00:17:00,
2013-02-04 18:22:00,25.6,19.4,29.92,South,180,3.4,3.4,77,0.00,,,0.00,WUHU216HW,2013-02-05 00:22:00,
2013-02-04 18:27:00,25.6,19.4,29.92,SSW,203,2.2,3.4,77,0.00,,,0.00,WUHU216HW,2013-02-05 00:27:00,
2013-02-04 18:32:00,25.6,19.4,29.92,SSW,203,1.8,3.4,77,0.00,,,0.00,WUHU216HW,2013-02-05 00:32:00,
2013-02-04 18:37:00,25.6,19.4,29.92,SW,225,0.7,1.8,77,0.00,,,0.00,WUHU216HW,2013-02-05 00:37:00,
2013-02-04 18:42:00,25.6,19.4,29.92,SW,225,0.7,1.8,77,0.00,,,0.00,WUHU216HW,2013-02-05 00:42:00,
2013-02-04 18:48:00,25.6,19.4,29.93,SW,225,0.7,2.9,77,0.00,,,0.00,WUHU216HW,2013-02-05 00:48:00,
2013-02-04 18:53:00,25.4,19.2,29.93,SSW,203,4.0,4.0,77,0.00,,,0.00,WUHU216HW,2013-02-05 00:53:00,
2013-02-04 18:58:00,25.4,19.2,29.93,SW,225,3.4,4.0,77,0.00,,,0.00,WUHU216HW,2013-02-05 00:58:00,
2013-02-04 19:04:00,25.4,19.2,29.93,SW,225,3.4,4.0,77,0.00,,,0.00,WUHU216HW,2013-02-05 01:04:00,
2013-02-04 19:09:00,25.4,19.2,29.93,SW,225,2.5,3.6,77,0.00,,,0.00,WUHU216HW,2013-02-05 01:09:00,
2013-02-04 19:14:00,25.4,19.2,29.93,SSW,203,1.6,2.7,77,0.00,,,0.00,WUHU216HW,2013-02-05 01:14:00,
2013-02-04 19:19:00,25.4,19.2,29.93,South,180,4.0,4.0,77,0.00,,,0.00,WUHU216HW,2013-02-05 01:19:00,
2013-02-04 19:24:00,25.6,19.4,29.93,SSW,203,2.7,4.0,77,0.00,,,0.00,WUHU216HW,2013-02-05 01:24:00,
2013-02-04 19:29:00,25.6,19.4,29.93,SW,225,1.3,2.7,77,0.00,,,0.00,WUHU216HW,2013-02-05 01:29:00,
2013-02-04 19:34:00,25.6,19.4,29.93,SSW,203,2.9,2.9,77,0.00,,,0.00,WUHU216HW,2013-02-05 01:34:00,
2013-02-04 19:40:00,25.6,19.4,29.93,SSW,203,3.4,3.4,77,0.00,,,0.00,WUHU216HW,2013-02-05 01:40:00,
2013-02-04 19:45:00,25.6,19.4,29.93,South,180,2.5,3.4,77,0.00,,,0.00,WUHU216HW,2013-02-05 01:45:00,
2013-02-04 19:50:00,25.7,19.5,29.92,SSW,203,2.2,3.4,77,0.00,,,0.00,WUHU216HW,2013-02-05 01:50:00,
2013-02-04 19:55:00,25.7,19.5,29.92,SSW,203,2.0,2.5,77,0.00,,,0.00,WUHU216HW,2013-02-05 01:55:00,
2013-02-04 20:00:00,25.7,19.5,29.92,SSW,203,3.1,3.1,77,0.00,,,0.00,WUHU216HW,2013-02-05 02:00:00,
2013-02-04 20:05:00,25.7,19.5,29.92,SSW,203,3.4,4.7,77,0.00,,,0.00,WUHU216HW,2013-02-05 02:05:00,
2013-02-04 20:10:00,25.7,19.5,29.91,South,180,5.4,5.4,77,0.00,,,0.00,WUHU216HW,2013-02-05 02:10:00,
2013-02-04 20:15:00,25.7,19.5,29.91,South,180,1.1,5.4,77,0.00,,,0.00,WUHU216HW,2013-02-05 02:15:00,
2013-02-04 20:21:00,25.7,19.5,29.90,South,180,4.5,5.4,77,0.00,,,0.00,WUHU216HW,2013-02-05 02:21:00,
2013-02-04 20:26:00,25.7,19.5,29.90,South,180,2.5,4.5,77,0.00,,,0.00,WUHU216HW,2013-02-05 02:26:00,
2013-02-04 20:31:00,25.7,19.5,29.90,South,180,1.1,3.1,77,0.00,,,0.00,WUHU216HW,2013-02-05 02:31:00,
2013-02-04 20:36:00,25.9,19.6,29.90,SSE,158,1.1,3.1,77,0.00,,,0.00,WUHU216HW,2013-02-05 02:36:00,
2013-02-04 20:42:00,25.7,19.5,29.89,South,180,1.8,1.8,77,0.00,,,0.00,WUHU216HW,2013-02-05 02:42:00,
2013-02-04 20:47:00,25.9,19.6,29.88,South,180,4.3,4.7,77,0.00,,,0.00,WUHU216HW,2013-02-05 02:47:00,
2013-02-04 20:52:00,25.9,20.0,29.87,SSW,203,2.5,5.6,78,0.00,,,0.00,WUHU216HW,2013-02-05 02:52:00,
2013-02-04 20:57:00,25.9,19.6,29.87,South,180,6.7,6.7,77,0.00,,,0.00,WUHU216HW,2013-02-05 02:57:00,
2013-02-04 21:02:00,25.9,19.6,29.87,SW,225,4.9,9.8,77,0.00,,,0.00,WUHU216HW,2013-02-05 03:02:00,
2013-02-04 21:07:00,25.9,20.0,29.87,South,180,5.8,9.8,78,0.00,,,0.00,WUHU216HW,2013-02-05 03:07:00,
2013-02-04 21:13:00,25.9,20.0,29.88,SSW,203,8.1,8.1,78,0.00,,,0.00,WUHU216HW,2013-02-05 03:13:00,
2013-02-04 21:19:00,25.9,20.0,29.88,SSW,203,7.6,8.1,78,0.00,,,0.00,WUHU216HW,2013-02-05 03:19:00,
2013-02-04 21:24:00,26.1,20.2,29.87,SW,225,6.3,8.1,78,0.00,,,0.00,WUHU216HW,2013-02-05 03:24:00,
2013-02-04 21:29:00,26.1,20.2,29.87,SW,225,11.4,11.4,78,0.00,,,0.00,WUHU216HW,2013-02-05 03:29:00,
2013-02-04 21:34:00,26.1,20.2,29.87,SSW,203,8.3,11.4,78,0.00,,,0.00,WUHU216HW,2013-02-05 03:34:00,
2013-02-04 21:39:00,26.1,20.2,29.87,South,180,5.4,8.3,78,0.00,,,0.00,WUHU216HW,2013-02-05 03:39:00,
2013-02-04 21:44:00,26.1,20.2,29.87,South,180,9.2,9.2,78,0.00,,,0.00,WUHU216HW,2013-02-05 03:44:00,
2013-02-04 21:49:00,26.1,20.2,29.87,South,180,6.3,9.2,78,0.00,,,0.00,WUHU216HW,2013-02-05 03:49:00,
2013-02-04 21:54:00,26.1,20.2,29.86,South,180,7.6,9.2,78,0.00,,,0.00,WUHU216HW,2013-02-05 03:54:00,
2013-02-04 21:59:00,25.9,20.0,29.86,South,180,10.1,10.1,78,0.00,,,0.00,WUHU216HW,2013-02-05 03:59:00,
2013-02-04 22:05:00,26.1,20.2,29.86,SSW,203,8.9,10.1,78,0.00,,,0.00,WUHU216HW,2013-02-05 04:05:00,
2013-02-04 22:10:00,26.1,20.2,29.87,South,180,10.1,10.1,78,0.00,,,0.00,WUHU216HW,2013-02-05 04:10:00,
2013-02-04 22:15:00,26.1,20.2,29.87,South,180,4.0,10.1,78,0.00,,,0.00,WUHU216HW,2013-02-05 04:15:00,
2013-02-04 22:20:00,26.1,20.2,29.87,SSE,158,4.9,6.3,78,0.00,,,0.00,WUHU216HW,2013-02-05 04:20:00,
2013-02-04 22:25:00,25.9,20.0,29.87,South,180,6.5,6.9,78,0.00,,,0.00,WUHU216HW,2013-02-05 04:25:00,
2013-02-04 22:30:00,25.9,20.0,29.87,South,180,4.0,6.9,78,0.00,,,0.00,WUHU216HW,2013-02-05 04:30:00,
2013-02-04 22:36:00,26.1,20.2,29.87,South,180,5.6,6.5,78,0.00,,,0.00,WUHU216HW,2013-02-05 04:36:00,
2013-02-04 22:41:00,26.1,20.2,29.87,South,180,3.8,5.6,78,0.00,,,0.00,WUHU216HW,2013-02-05 04:41:00,
2013-02-04 22:47:00,26.1,20.2,29.87,South,180,8.3,8.3,78,0.00,,,0.00,WUHU216HW,2013-02-05 04:47:00,
2013-02-04 22:52:00,25.9,20.0,29.86,SSW,203,6.3,8.3,78,0.00,,,0.00,WUHU216HW,2013-02-05 04:52:00,
2013-02-04 22:57:00,25.9,20.0,29.86,SSE,158,2.2,6.9,78,0.00,,,0.00,WUHU216HW,2013-02-05 04:57:00,
2013-02-04 23:00:00,25.9,20.0,29.86,SSE,158,2.2,6.3,78,0.00,,,0.00,WUHU216HW,2013-02-05 05:00:00,
2013-02-04 23:01:00,25.9,20.0,29.85,South,180,3.4,6.3,78,0.00,,,0.00,WUHU216HW,2013-02-05 05:01:00,
2013-02-04 23:02:00,25.9,20.0,29.86,South,180,3.4,6.3,78,0.00,,,0.00,WUHU216HW,2013-02-05 05:02:00,
2013-02-04 23:07:00,26.1,20.2,29.85,SSW,203,3.8,4.9,78,0.00,,,0.00,WUHU216HW,2013-02-05 05:07:00,
2013-02-04 23:12:00,26.1,20.2,29.85,South,180,4.0,6.3,78,0.00,,,0.00,WUHU216HW,2013-02-05 05:12:00,
2013-02-04 23:17:00,25.9,20.0,29.85,South,180,3.8,6.3,78,0.00,,,0.00,WUHU216HW,2013-02-05 05:17:00,
2013-02-04 23:22:00,26.1,20.2,29.85,South,180,2.9,5.4,78,0.00,,,0.00,WUHU216HW,2013-02-05 05:22:00,
2013-02-04 23:27:00,25.9,20.0,29.84,South,180,4.3,5.8,78,0.00,,,0.00,WUHU216HW,2013-02-05 05:27:00,
2013-02-04 23:32:00,26.1,20.2,29.85,SSW,203,2.0,5.8,78,0.00,,,0.00,WUHU216HW,2013-02-05 05:32:00,
2013-02-04 23:38:00,25.9,20.0,29.85,SSW,203,4.3,4.3,78,0.00,,,0.00,WUHU216HW,2013-02-05 05:38:00,
2013-02-04 23:43:00,25.9,20.0,29.85,SSW,203,4.3,4.3,78,0.00,,,0.00,WUHU216HW,2013-02-05 05:43:00,
2013-02-04 23:48:00,25.9,20.0,29.85,SSW,203,2.2,4.3,78,0.00,,,0.00,WUHU216HW,2013-02-05 05:48:00,
2013-02-04 23:53:00,25.9,20.0,29.85,SSW,203,3.4,4.3,78,0.00,,,0.00,WUHU216HW,2013-02-05 05:53:00,
2013-02-04 23:58:00,25.9,20.0,29.85,SSW,203,2.5,3.4,78,0.00,,,0.00,WUHU216HW,2013-02-05 05:58:00,